sensor_id;sensor_type;location;lat;lon;timestamp;pressure;altitude;pressure_sealevel;temperature;humidity
55538;BME280;41383;51.418;7.286;2022-09-01T00:01:52;100353.94;;;18.26;54.50
55538;BME280;41383;51.418;7.286;2022-09-01T00:04:21;100337.41;;;18.40;54.00
55538;BME280;41383;51.418;7.286;2022-09-01T00:06:48;100345.78;;;18.49;53.88
55538;BME280;41383;51.418;7.286;2022-09-01T00:09:17;100345.91;;;18.44;54.25
55538;BME280;41383;51.418;7.286;2022-09-01T00:11:44;100349.19;;;18.46;54.21
55538;BME280;41383;51.418;7.286;2022-09-01T00:14:11;100344.19;;;18.48;54.46
55538;BME280;41383;51.418;7.286;2022-09-01T00:16:37;100345.78;;;18.49;54.19
55538;BME280;41383;51.418;7.286;2022-09-01T00:19:03;100344.38;;;18.52;53.89
55538;BME280;41383;51.418;7.286;2022-09-01T00:21:32;100348.28;;;18.51;54.10
55538;BME280;41383;51.418;7.286;2022-09-01T00:23:58;100348.63;;;18.30;53.99
55538;BME280;41383;51.418;7.286;2022-09-01T00:26:24;100351.34;;;18.16;55.18
55538;BME280;41383;51.418;7.286;2022-09-01T00:28:50;100354.09;;;18.16;55.08
55538;BME280;41383;51.418;7.286;2022-09-01T00:31:16;100334.22;;;18.33;54.53
55538;BME280;41383;51.418;7.286;2022-09-01T00:33:43;100347.28;;;18.27;54.58
55538;BME280;41383;51.418;7.286;2022-09-01T00:36:09;100348.03;;;18.33;54.27
55538;BME280;41383;51.418;7.286;2022-09-01T00:38:35;100353.94;;;18.26;54.17
55538;BME280;41383;51.418;7.286;2022-09-01T00:41:01;100346.59;;;18.36;54.08
55538;BME280;41383;51.418;7.286;2022-09-01T00:43:42;100339.66;;;18.38;54.17
55538;BME280;41383;51.418;7.286;2022-09-01T00:46:11;100340.69;;;18.42;53.57
55538;BME280;41383;51.418;7.286;2022-09-01T00:48:37;100348.13;;;18.28;54.84
55538;BME280;41383;51.418;7.286;2022-09-01T00:51:04;100345.38;;;18.42;54.27
55538;BME280;41383;51.418;7.286;2022-09-01T00:53:30;100346.22;;;18.42;54.79
55538;BME280;41383;51.418;7.286;2022-09-01T00:55:56;100351.31;;;18.49;54.49
55538;BME280;41383;51.418;7.286;2022-09-01T00:58:22;100344.94;;;18.35;54.93
55538;BME280;41383;51.418;7.286;2022-09-01T01:00:48;100352.59;;;18.24;55.47
55538;BME280;41383;51.418;7.286;2022-09-01T01:03:16;100342.81;;;18.31;55.35
55538;BME280;41383;51.418;7.286;2022-09-01T01:05:45;100343.44;;;18.28;55.24
55538;BME280;41383;51.418;7.286;2022-09-01T01:08:13;100344.94;;;18.35;54.79
55538;BME280;41383;51.418;7.286;2022-09-01T01:10:42;100339.91;;;18.23;55.38
55538;BME280;41383;51.418;7.286;2022-09-01T01:13:10;100339.31;;;18.26;55.37
55538;BME280;41383;51.418;7.286;2022-09-01T01:15:38;100337.53;;;18.16;55.33
55538;BME280;41383;51.418;7.286;2022-09-01T01:18:09;100334.22;;;18.00;56.14
55538;BME280;41383;51.418;7.286;2022-09-01T01:20:35;100339.75;;;18.00;55.85
55538;BME280;41383;51.418;7.286;2022-09-01T01:26:02;100341.94;;;17.83;56.45
55538;BME280;41383;51.418;7.286;2022-09-01T01:28:33;100336.72;;;17.62;57.11
55538;BME280;41383;51.418;7.286;2022-09-01T01:31:12;100348.16;;;17.31;58.07
55538;BME280;41383;51.418;7.286;2022-09-01T01:33:41;100342.44;;;17.27;58.28
55538;BME280;41383;51.418;7.286;2022-09-01T01:36:10;100350.56;;;17.19;58.31
55538;BME280;41383;51.418;7.286;2022-09-01T01:38:38;100345.88;;;17.38;57.52
55538;BME280;41383;51.418;7.286;2022-09-01T01:41:05;100345.28;;;17.42;57.85
55538;BME280;41383;51.418;7.286;2022-09-01T01:43:31;100348.41;;;17.54;57.18
55538;BME280;41383;51.418;7.286;2022-09-01T01:45:56;100344.25;;;17.57;57.33
55538;BME280;41383;51.418;7.286;2022-09-01T01:48:28;100345.06;;;17.57;57.28
55538;BME280;41383;51.418;7.286;2022-09-01T01:50:55;100341.41;;;17.43;57.53
55538;BME280;41383;51.418;7.286;2022-09-01T01:53:22;100349.44;;;17.39;57.82
55538;BME280;41383;51.418;7.286;2022-09-01T01:55:48;100350.03;;;17.17;57.89
55538;BME280;41383;51.418;7.286;2022-09-01T01:58:17;100350.56;;;17.19;58.42
55538;BME280;41383;51.418;7.286;2022-09-01T02:00:48;100347.13;;;17.27;58.12
55538;BME280;41383;51.418;7.286;2022-09-01T02:03:17;100349.50;;;17.14;58.64
55538;BME280;41383;51.418;7.286;2022-09-01T02:05:46;100351.00;;;17.26;58.66
55538;BME280;41383;51.418;7.286;2022-09-01T02:08:12;100354.81;;;17.30;58.72
55538;BME280;41383;51.418;7.286;2022-09-01T02:10:44;100348.78;;;17.28;58.85
55538;BME280;41383;51.418;7.286;2022-09-01T02:13:13;100348.06;;;17.17;59.11
55538;BME280;41383;51.418;7.286;2022-09-01T02:15:50;100355.81;;;17.15;59.51
55538;BME280;41383;51.418;7.286;2022-09-01T02:18:24;100353.41;;;17.08;59.76
55538;BME280;41383;51.418;7.286;2022-09-01T02:20:52;100353.09;;;17.10;59.49
55538;BME280;41383;51.418;7.286;2022-09-01T02:23:19;100356.16;;;17.08;59.34
55538;BME280;41383;51.418;7.286;2022-09-01T02:25:48;100350.28;;;16.90;60.09
55538;BME280;41383;51.418;7.286;2022-09-01T02:28:15;100349.50;;;16.90;59.79
55538;BME280;41383;51.418;7.286;2022-09-01T02:30:48;100350.28;;;16.90;60.06
55538;BME280;41383;51.418;7.286;2022-09-01T02:33:16;100350.25;;;16.96;59.55
55538;BME280;41383;51.418;7.286;2022-09-01T02:35:45;100355.13;;;17.04;59.33
55538;BME280;41383;51.418;7.286;2022-09-01T02:38:11;100349.22;;;17.11;58.92
55538;BME280;41383;51.418;7.286;2022-09-01T02:40:41;100347.38;;;17.06;59.44
55538;BME280;41383;51.418;7.286;2022-09-01T02:43:12;100355.81;;;16.90;59.65
55538;BME280;41383;51.418;7.286;2022-09-01T02:45:38;100356.34;;;16.92;59.55
55538;BME280;41383;51.418;7.286;2022-09-01T02:48:04;100356.22;;;17.03;59.40
55538;BME280;41383;51.418;7.286;2022-09-01T02:50:38;100353.84;;;16.96;59.59
55538;BME280;41383;51.418;7.286;2022-09-01T02:53:04;100356.34;;;16.92;59.54
55538;BME280;41383;51.418;7.286;2022-09-01T02:55:43;100356.19;;;16.84;59.84
55538;BME280;41383;51.418;7.286;2022-09-01T02:58:09;100353.13;;;16.85;60.33
55538;BME280;41383;51.418;7.286;2022-09-01T03:00:43;100346.84;;;16.55;60.27
55538;BME280;41383;51.418;7.286;2022-09-01T03:03:09;100347.84;;;16.64;60.54
55538;BME280;41383;51.418;7.286;2022-09-01T03:05:37;100355.63;;;16.57;60.27
55538;BME280;41383;51.418;7.286;2022-09-01T03:08:06;100354.22;;;16.60;60.80
55538;BME280;41383;51.418;7.286;2022-09-01T03:10:36;100355.53;;;16.67;60.74
55538;BME280;41383;51.418;7.286;2022-09-01T03:13:09;100356.81;;;16.75;59.88
55538;BME280;41383;51.418;7.286;2022-09-01T03:15:35;100343.88;;;16.76;60.22
55538;BME280;41383;51.418;7.286;2022-09-01T03:18:02;100348.19;;;16.82;59.90
55538;BME280;41383;51.418;7.286;2022-09-01T03:20:30;100350.47;;;16.75;60.10
55538;BME280;41383;51.418;7.286;2022-09-01T03:23:02;100349.13;;;16.72;60.13
55538;BME280;41383;51.418;7.286;2022-09-01T03:25:28;100361.38;;;16.61;60.25
55538;BME280;41383;51.418;7.286;2022-09-01T03:27:57;100360.41;;;16.16;61.74
55538;BME280;41383;51.418;7.286;2022-09-01T03:30:29;100354.84;;;16.21;61.71
55538;BME280;41383;51.418;7.286;2022-09-01T03:32:56;100353.84;;;16.42;61.25
55538;BME280;41383;51.418;7.286;2022-09-01T03:35:22;100361.78;;;16.43;60.97
55538;BME280;41383;51.418;7.286;2022-09-01T03:37:47;100360.63;;;16.50;60.91
55538;BME280;41383;51.418;7.286;2022-09-01T03:40:13;100359.00;;;16.49;60.76
55538;BME280;41383;51.418;7.286;2022-09-01T03:42:40;100358.72;;;16.50;60.76
55538;BME280;41383;51.418;7.286;2022-09-01T03:45:07;100357.19;;;16.39;61.28
55538;BME280;41383;51.418;7.286;2022-09-01T03:47:34;100359.63;;;16.40;61.06
55538;BME280;41383;51.418;7.286;2022-09-01T03:50:06;100355.28;;;16.34;61.34
55538;BME280;41383;51.418;7.286;2022-09-01T03:52:36;100354.72;;;16.37;60.93
55538;BME280;41383;51.418;7.286;2022-09-01T03:55:03;100352.63;;;16.24;61.31
55538;BME280;41383;51.418;7.286;2022-09-01T03:57:29;100359.00;;;16.19;61.63
55538;BME280;41383;51.418;7.286;2022-09-01T03:59:54;100353.47;;;16.24;61.48
55538;BME280;41383;51.418;7.286;2022-09-01T04:02:21;100347.72;;;16.20;61.67
55538;BME280;41383;51.418;7.286;2022-09-01T04:04:46;100352.63;;;16.24;61.49
55538;BME280;41383;51.418;7.286;2022-09-01T04:07:12;100344.63;;;16.27;61.30
55538;BME280;41383;51.418;7.286;2022-09-01T04:09:37;100348.25;;;16.22;61.13
55538;BME280;41383;51.418;7.286;2022-09-01T04:12:04;100354.41;;;16.09;61.76
55538;BME280;41383;51.418;7.286;2022-09-01T04:14:34;100348.41;;;16.02;61.46
55538;BME280;41383;51.418;7.286;2022-09-01T04:16:59;100347.88;;;16.05;61.52
55538;BME280;41383;51.418;7.286;2022-09-01T04:19:43;100346.16;;;16.09;61.60
55538;BME280;41383;51.418;7.286;2022-09-01T04:22:08;100352.56;;;15.94;62.09
55538;BME280;41383;51.418;7.286;2022-09-01T04:24:37;100350.59;;;15.99;62.25
55538;BME280;41383;51.418;7.286;2022-09-01T04:27:10;100352.00;;;15.97;62.00
55538;BME280;41383;51.418;7.286;2022-09-01T04:29:35;100347.31;;;15.97;62.19
55538;BME280;41383;51.418;7.286;2022-09-01T04:32:07;100353.63;;;16.03;61.94
55538;BME280;41383;51.418;7.286;2022-09-01T04:34:36;100345.06;;;16.10;61.70
55538;BME280;41383;51.418;7.286;2022-09-01T04:37:07;100345.16;;;15.94;61.95
55538;BME280;41383;51.418;7.286;2022-09-01T04:39:32;100348.22;;;15.87;62.00
55538;BME280;41383;51.418;7.286;2022-09-01T04:42:00;100344.19;;;15.74;62.43
55538;BME280;41383;51.418;7.286;2022-09-01T04:44:30;100348.16;;;15.58;62.66
55538;BME280;41383;51.418;7.286;2022-09-01T04:46:55;100355.81;;;15.61;62.72
55538;BME280;41383;51.418;7.286;2022-09-01T04:49:21;100354.56;;;15.88;62.08
55538;BME280;41383;51.418;7.286;2022-09-01T04:51:49;100355.09;;;15.85;61.97
55538;BME280;41383;51.418;7.286;2022-09-01T04:54:15;100353.72;;;15.87;62.26
55538;BME280;41383;51.418;7.286;2022-09-01T04:56:44;100352.91;;;15.87;61.88
55538;BME280;41383;51.418;7.286;2022-09-01T04:59:12;100361.69;;;15.89;61.87
55538;BME280;41383;51.418;7.286;2022-09-01T05:01:38;100352.44;;;15.74;62.03
55538;BME280;41383;51.418;7.286;2022-09-01T05:04:12;100359.75;;;15.49;62.59
55538;BME280;41383;51.418;7.286;2022-09-01T05:06:43;100348.94;;;15.63;62.39
55538;BME280;41383;51.418;7.286;2022-09-01T05:09:12;100361.75;;;15.79;62.50
55538;BME280;41383;51.418;7.286;2022-09-01T05:11:39;100347.84;;;15.99;61.43
55538;BME280;41383;51.418;7.286;2022-09-01T05:14:11;100351.75;;;15.93;61.81
55538;BME280;41383;51.418;7.286;2022-09-01T05:16:37;100357.75;;;16.06;61.77
55538;BME280;41383;51.418;7.286;2022-09-01T05:19:05;100351.44;;;15.95;61.55
55538;BME280;41383;51.418;7.286;2022-09-01T05:21:31;100358.44;;;15.82;62.62
55538;BME280;41383;51.418;7.286;2022-09-01T05:23:58;100363.34;;;15.85;62.46
55538;BME280;41383;51.418;7.286;2022-09-01T05:26:28;100353.66;;;15.98;62.23
55538;BME280;41383;51.418;7.286;2022-09-01T05:28:59;100356.69;;;15.96;62.12
55538;BME280;41383;51.418;7.286;2022-09-01T05:31:27;100356.94;;;15.95;62.38
55538;BME280;41383;51.418;7.286;2022-09-01T05:33:53;100364.63;;;16.03;62.07
55538;BME280;41383;51.418;7.286;2022-09-01T05:36:21;100364.59;;;16.08;62.31
55538;BME280;41383;51.418;7.286;2022-09-01T05:38:47;100358.31;;;15.97;62.32
55538;BME280;41383;51.418;7.286;2022-09-01T05:41:15;100367.31;;;15.68;62.94
55538;BME280;41383;51.418;7.286;2022-09-01T05:43:42;100365.31;;;15.84;62.90
55538;BME280;41383;51.418;7.286;2022-09-01T05:46:14;100366.63;;;15.92;62.73
55538;BME280;41383;51.418;7.286;2022-09-01T05:48:44;100366.09;;;15.90;61.83
55538;BME280;41383;51.418;7.286;2022-09-01T05:51:11;100363.00;;;16.02;61.73
55538;BME280;41383;51.418;7.286;2022-09-01T05:53:40;100369.56;;;16.01;62.50
55538;BME280;41383;51.418;7.286;2022-09-01T05:56:08;100367.06;;;16.10;61.88
55538;BME280;41383;51.418;7.286;2022-09-01T05:58:34;100368.44;;;16.07;61.97
55538;BME280;41383;51.418;7.286;2022-09-01T06:01:00;100370.81;;;16.19;62.05
55538;BME280;41383;51.418;7.286;2022-09-01T06:03:26;100375.25;;;16.15;62.66
55538;BME280;41383;51.418;7.286;2022-09-01T06:05:53;100371.00;;;15.93;62.50
55538;BME280;41383;51.418;7.286;2022-09-01T06:08:21;100375.25;;;16.15;62.45
55538;BME280;41383;51.418;7.286;2022-09-01T06:10:48;100372.94;;;16.28;62.35
55538;BME280;41383;51.418;7.286;2022-09-01T06:13:15;100367.31;;;16.43;62.00
55538;BME280;41383;51.418;7.286;2022-09-01T06:15:42;100373.34;;;16.45;61.52
55538;BME280;41383;51.418;7.286;2022-09-01T06:18:10;100375.00;;;16.47;61.69
55538;BME280;41383;51.418;7.286;2022-09-01T06:20:45;100374.66;;;16.53;61.93
55538;BME280;41383;51.418;7.286;2022-09-01T06:23:11;100370.69;;;16.65;61.52
55538;BME280;41383;51.418;7.286;2022-09-01T06:25:40;100373.13;;;16.66;60.95
55538;BME280;41383;51.418;7.286;2022-09-01T06:28:07;100374.19;;;16.71;60.91
55538;BME280;41383;51.418;7.286;2022-09-01T06:30:36;100369.41;;;16.82;60.75
55538;BME280;41383;51.418;7.286;2022-09-01T06:33:02;100371.44;;;16.71;60.85
55538;BME280;41383;51.418;7.286;2022-09-01T06:35:30;100373.34;;;16.75;60.73
55538;BME280;41383;51.418;7.286;2022-09-01T06:37:56;100387.19;;;16.65;61.27
55538;BME280;41383;51.418;7.286;2022-09-01T06:40:23;100378.22;;;16.54;62.09
55538;BME280;41383;51.418;7.286;2022-09-01T06:42:50;100385.22;;;16.71;60.85
55538;BME280;41383;51.418;7.286;2022-09-01T06:45:19;100380.22;;;16.73;60.36
55538;BME280;41383;51.418;7.286;2022-09-01T06:47:46;100387.69;;;16.97;60.04
55538;BME280;41383;51.418;7.286;2022-09-01T06:50:13;100385.44;;;16.99;60.25
55538;BME280;41383;51.418;7.286;2022-09-01T06:52:43;100387.34;;;17.03;60.09
55538;BME280;41383;51.418;7.286;2022-09-01T06:55:13;100385.22;;;16.95;60.28
55538;BME280;41383;51.418;7.286;2022-09-01T06:57:40;100390.28;;;16.88;60.38
55538;BME280;41383;51.418;7.286;2022-09-01T07:00:08;100393.06;;;17.07;60.02
55538;BME280;41383;51.418;7.286;2022-09-01T07:02:39;100386.66;;;17.17;59.81
55538;BME280;41383;51.418;7.286;2022-09-01T07:05:05;100388.97;;;17.04;59.80
55538;BME280;41383;51.418;7.286;2022-09-01T07:07:32;100385.78;;;17.22;59.56
55538;BME280;41383;51.418;7.286;2022-09-01T07:09:58;100384.50;;;17.14;59.12
55538;BME280;41383;51.418;7.286;2022-09-01T07:12:23;100388.59;;;17.17;59.32
55538;BME280;41383;51.418;7.286;2022-09-01T07:14:50;100388.97;;;17.29;59.09
55538;BME280;41383;51.418;7.286;2022-09-01T07:17:16;100391.34;;;17.17;59.51
55538;BME280;41383;51.418;7.286;2022-09-01T07:19:42;100399.47;;;17.27;58.78
55538;BME280;41383;51.418;7.286;2022-09-01T07:22:07;100395.31;;;17.05;58.38
55538;BME280;41383;51.418;7.286;2022-09-01T07:24:33;100388.63;;;17.11;58.88
55538;BME280;41383;51.418;7.286;2022-09-01T07:26:58;100390.31;;;17.12;58.42
55538;BME280;41383;51.418;7.286;2022-09-01T07:29:23;100383.63;;;17.19;58.60
55538;BME280;41383;51.418;7.286;2022-09-01T07:31:50;100390.38;;;17.51;58.30
55538;BME280;41383;51.418;7.286;2022-09-01T07:34:20;100398.78;;;17.60;57.61
55538;BME280;41383;51.418;7.286;2022-09-01T07:36:46;100393.66;;;17.53;57.19
55538;BME280;41383;51.418;7.286;2022-09-01T07:39:12;100385.91;;;17.55;56.85
55538;BME280;41383;51.418;7.286;2022-09-01T07:41:39;100388.13;;;17.53;57.15
55538;BME280;41383;51.418;7.286;2022-09-01T07:44:07;100388.56;;;17.60;56.92
55538;BME280;41383;51.418;7.286;2022-09-01T07:46:34;100392.91;;;17.67;56.69
55538;BME280;41383;51.418;7.286;2022-09-01T07:49:01;100390.94;;;17.87;56.69
55538;BME280;41383;51.418;7.286;2022-09-01T07:51:28;100389.09;;;18.01;55.86
55538;BME280;41383;51.418;7.286;2022-09-01T07:53:54;100384.25;;;17.93;55.45
55538;BME280;41383;51.418;7.286;2022-09-01T07:56:21;100387.56;;;18.09;55.65
55538;BME280;41383;51.418;7.286;2022-09-01T07:58:49;100374.50;;;18.15;54.89
55538;BME280;41383;51.418;7.286;2022-09-01T08:01:19;100380.09;;;18.29;55.38
55538;BME280;41383;51.418;7.286;2022-09-01T08:03:47;100380.13;;;18.43;54.72
55538;BME280;41383;51.418;7.286;2022-09-01T08:06:15;100383.03;;;18.52;54.34
55538;BME280;41383;51.418;7.286;2022-09-01T08:08:43;100379.97;;;18.53;54.77
55538;BME280;41383;51.418;7.286;2022-09-01T08:11:08;100369.03;;;18.48;54.03
55538;BME280;41383;51.418;7.286;2022-09-01T08:13:35;100376.59;;;18.57;53.59
55538;BME280;41383;51.418;7.286;2022-09-01T08:16:05;100378.94;;;18.63;54.57
55538;BME280;41383;51.418;7.286;2022-09-01T08:18:31;100374.75;;;18.66;53.72
55538;BME280;41383;51.418;7.286;2022-09-01T08:20:56;100380.59;;;18.78;53.09
55538;BME280;41383;51.418;7.286;2022-09-01T08:23:21;100372.00;;;18.66;52.66
55538;BME280;41383;51.418;7.286;2022-09-01T08:25:51;100377.72;;;18.84;52.71
55538;BME280;41383;51.418;7.286;2022-09-01T08:28:16;100378.75;;;18.88;51.97
55538;BME280;41383;51.418;7.286;2022-09-01T08:30:42;100383.50;;;19.01;52.12
55538;BME280;41383;51.418;7.286;2022-09-01T08:33:08;100380.22;;;19.13;51.08
55538;BME280;41383;51.418;7.286;2022-09-01T08:35:40;100380.72;;;19.30;51.21
55538;BME280;41383;51.418;7.286;2022-09-01T08:38:05;100375.00;;;19.40;51.43
55538;BME280;41383;51.418;7.286;2022-09-01T08:40:31;100377.63;;;19.45;51.13
55538;BME280;41383;51.418;7.286;2022-09-01T08:43:19;100374.13;;;19.54;50.58
55538;BME280;41383;51.418;7.286;2022-09-01T08:45:52;100371.97;;;19.65;50.63
55538;BME280;41383;51.418;7.286;2022-09-01T08:48:26;100374.88;;;19.82;49.38
55538;BME280;41383;51.418;7.286;2022-09-01T08:51:04;100377.81;;;19.86;48.55
55538;BME280;41383;51.418;7.286;2022-09-01T08:53:37;100369.78;;;19.99;46.45
55538;BME280;41383;51.418;7.286;2022-09-01T08:56:07;100371.84;;;19.93;47.92
55538;BME280;41383;51.418;7.286;2022-09-01T08:58:34;100364.59;;;20.06;47.30
55538;BME280;41383;51.418;7.286;2022-09-01T09:01:03;100364.81;;;20.10;47.71
55538;BME280;41383;51.418;7.286;2022-09-01T09:03:42;100364.78;;;20.24;46.81
55538;BME280;41383;51.418;7.286;2022-09-01T09:09:13;100362.97;;;20.28;47.72
55538;BME280;41383;51.418;7.286;2022-09-01T09:17:23;100359.34;;;20.41;46.22
55538;BME280;41383;51.418;7.286;2022-09-01T09:19:52;100352.03;;;20.46;45.76
55538;BME280;41383;51.418;7.286;2022-09-01T09:22:18;100352.69;;;20.51;46.60
55538;BME280;41383;51.418;7.286;2022-09-01T09:27:33;100354.03;;;20.63;46.11
55538;BME280;41383;51.418;7.286;2022-09-01T09:32:48;100334.81;;;20.67;45.82
55538;BME280;41383;51.418;7.286;2022-09-01T09:37:52;100339.41;;;20.71;46.43
55538;BME280;41383;51.418;7.286;2022-09-01T09:40:26;100339.59;;;20.75;47.32
55538;BME280;41383;51.418;7.286;2022-09-01T09:47:50;100333.72;;;20.68;46.74
55538;BME280;41383;51.418;7.286;2022-09-01T09:50:29;100325.41;;;20.68;46.97
55538;BME280;41383;51.418;7.286;2022-09-01T09:56:08;100327.38;;;20.76;46.67
55538;BME280;41383;51.418;7.286;2022-09-01T09:58:41;100323.78;;;20.75;46.40
55538;BME280;41383;51.418;7.286;2022-09-01T10:01:14;100314.88;;;20.87;46.15
55538;BME280;41383;51.418;7.286;2022-09-01T10:03:54;100306.13;;;21.03;46.03
55538;BME280;41383;51.418;7.286;2022-09-01T10:11:51;100296.84;;;21.08;45.59
55538;BME280;41383;51.418;7.286;2022-09-01T10:14:23;100301.59;;;21.34;45.40
55538;BME280;41383;51.418;7.286;2022-09-01T10:16:55;100293.78;;;21.36;45.83
55538;BME280;41383;51.418;7.286;2022-09-01T10:19:23;100297.84;;;21.30;46.11
55538;BME280;41383;51.418;7.286;2022-09-01T10:21:51;100296.53;;;21.36;46.36
55538;BME280;41383;51.418;7.286;2022-09-01T10:24:32;100293.63;;;21.41;45.55
55538;BME280;41383;51.418;7.286;2022-09-01T10:27:02;100289.06;;;21.45;45.59
55538;BME280;41383;51.418;7.286;2022-09-01T10:29:33;100290.00;;;21.58;44.11
55538;BME280;41383;51.418;7.286;2022-09-01T10:32:02;100291.16;;;21.66;45.08
55538;BME280;41383;51.418;7.286;2022-09-01T10:34:34;100283.16;;;21.83;43.55
55538;BME280;41383;51.418;7.286;2022-09-01T10:37:01;100283.66;;;21.85;44.77
55538;BME280;41383;51.418;7.286;2022-09-01T10:39:26;100281.69;;;21.76;44.45
55538;BME280;41383;51.418;7.286;2022-09-01T10:41:53;100278.41;;;21.92;43.08
55538;BME280;41383;51.418;7.286;2022-09-01T10:44:29;100277.75;;;21.95;43.30
55538;BME280;41383;51.418;7.286;2022-09-01T10:47:07;100278.28;;;21.88;44.32
55538;BME280;41383;51.418;7.286;2022-09-01T10:51:59;100277.19;;;22.20;42.39
55538;BME280;41383;51.418;7.286;2022-09-01T10:57:11;100274.06;;;22.21;42.12
55538;BME280;41383;51.418;7.286;2022-09-01T10:59:45;100263.91;;;22.34;42.01
55538;BME280;41383;51.418;7.286;2022-09-01T11:02:16;100264.72;;;22.35;41.57
55538;BME280;41383;51.418;7.286;2022-09-01T11:10:15;100265.63;;;22.48;40.16
55538;BME280;41383;51.418;7.286;2022-09-01T11:13:06;100262.84;;;22.57;41.21
55538;BME280;41383;51.418;7.286;2022-09-01T11:15:38;100262.56;;;22.49;41.87
55538;BME280;41383;51.418;7.286;2022-09-01T11:18:08;100249.28;;;22.55;42.44
55538;BME280;41383;51.418;7.286;2022-09-01T11:20:39;100258.53;;;22.68;41.93
55538;BME280;41383;51.418;7.286;2022-09-01T11:23:23;100253.28;;;22.76;41.49
55538;BME280;41383;51.418;7.286;2022-09-01T11:26:01;100256.63;;;22.90;40.36
55538;BME280;41383;51.418;7.286;2022-09-01T11:33:55;100261.03;;;22.91;39.73
55538;BME280;41383;51.418;7.286;2022-09-01T11:39:20;100246.91;;;22.96;38.95
55538;BME280;41383;51.418;7.286;2022-09-01T11:41:54;100251.53;;;23.14;38.91
55538;BME280;41383;51.418;7.286;2022-09-01T11:44:25;100248.41;;;23.15;40.62
55538;BME280;41383;51.418;7.286;2022-09-01T11:47:02;100247.34;;;23.29;38.39
55538;BME280;41383;51.418;7.286;2022-09-01T11:49:38;100241.97;;;23.24;38.70
55538;BME280;41383;51.418;7.286;2022-09-01T11:52:14;100254.09;;;23.19;39.94
55538;BME280;41383;51.418;7.286;2022-09-01T11:54:41;100244.47;;;23.38;39.55
55538;BME280;41383;51.418;7.286;2022-09-01T11:57:28;100241.22;;;23.36;39.22
55538;BME280;41383;51.418;7.286;2022-09-01T11:59:56;100242.50;;;23.38;39.72
55538;BME280;41383;51.418;7.286;2022-09-01T12:02:31;100246.41;;;23.46;39.82
55538;BME280;41383;51.418;7.286;2022-09-01T12:04:59;100233.78;;;23.49;38.84
55538;BME280;41383;51.418;7.286;2022-09-01T12:10:07;100233.09;;;23.52;39.66
55538;BME280;41383;51.418;7.286;2022-09-01T12:12:38;100231.16;;;23.43;38.85
55538;BME280;41383;51.418;7.286;2022-09-01T12:15:25;100222.09;;;23.34;39.35
55538;BME280;41383;51.418;7.286;2022-09-01T12:17:52;100224.66;;;23.39;39.65
55538;BME280;41383;51.418;7.286;2022-09-01T12:20:27;100222.91;;;23.35;39.25
55538;BME280;41383;51.418;7.286;2022-09-01T12:22:53;100216.81;;;23.20;39.72
55538;BME280;41383;51.418;7.286;2022-09-01T12:25:28;100212.22;;;23.03;40.12
55538;BME280;41383;51.418;7.286;2022-09-01T12:27:54;100213.25;;;22.98;38.92
55538;BME280;41383;51.418;7.286;2022-09-01T12:30:24;100214.78;;;22.86;39.54
55538;BME280;41383;51.418;7.286;2022-09-01T12:32:50;100219.06;;;22.84;39.64
55538;BME280;41383;51.418;7.286;2022-09-01T12:35:20;100206.38;;;22.95;38.19
55538;BME280;41383;51.418;7.286;2022-09-01T12:37:46;100216.41;;;23.09;38.70
55538;BME280;41383;51.418;7.286;2022-09-01T12:40:32;100207.47;;;23.25;39.15
55538;BME280;41383;51.418;7.286;2022-09-01T12:42:58;100210.44;;;23.41;38.25
55538;BME280;41383;51.418;7.286;2022-09-01T12:45:41;100203.19;;;23.49;38.37
55538;BME280;41383;51.418;7.286;2022-09-01T12:48:24;100198.69;;;23.35;38.94
55538;BME280;41383;51.418;7.286;2022-09-01T12:50:51;100204.16;;;23.10;39.03
55538;BME280;41383;51.418;7.286;2022-09-01T12:53:19;100197.84;;;23.22;38.46
55538;BME280;41383;51.418;7.286;2022-09-01T12:55:58;100195.44;;;23.33;38.45
55538;BME280;41383;51.418;7.286;2022-09-01T12:58:25;100185.25;;;23.59;38.19
55538;BME280;41383;51.418;7.286;2022-09-01T13:01:04;100182.56;;;23.62;38.30
55538;BME280;41383;51.418;7.286;2022-09-01T13:03:33;100197.38;;;23.54;37.70
55538;BME280;41383;51.418;7.286;2022-09-01T13:06:00;100188.09;;;23.50;37.08
55538;BME280;41383;51.418;7.286;2022-09-01T13:08:29;100175.88;;;23.76;38.30
55538;BME280;41383;51.418;7.286;2022-09-01T13:11:01;100177.03;;;23.75;36.98
55538;BME280;41383;51.418;7.286;2022-09-01T13:13:28;100178.41;;;23.69;35.88
55538;BME280;41383;51.418;7.286;2022-09-01T13:15:56;100177.94;;;23.66;35.60
55538;BME280;41383;51.418;7.286;2022-09-01T13:18:24;100178.19;;;23.74;36.66
55538;BME280;41383;51.418;7.286;2022-09-01T13:20:51;100175.06;;;23.75;35.97
55538;BME280;41383;51.418;7.286;2022-09-01T13:23:17;100168.91;;;23.82;35.72
55538;BME280;41383;51.418;7.286;2022-09-01T13:25:43;100164.63;;;23.72;36.12
55538;BME280;41383;51.418;7.286;2022-09-01T13:28:09;100159.63;;;23.78;35.72
55538;BME280;41383;51.418;7.286;2022-09-01T13:30:36;100170.50;;;23.58;36.25
55538;BME280;41383;51.418;7.286;2022-09-01T13:33:02;100169.00;;;23.61;37.34
55538;BME280;41383;51.418;7.286;2022-09-01T13:35:27;100166.03;;;23.78;36.60
55538;BME280;41383;51.418;7.286;2022-09-01T13:37:52;100160.81;;;23.77;36.32
55538;BME280;41383;51.418;7.286;2022-09-01T13:40:20;100156.59;;;23.58;35.96
55538;BME280;41383;51.418;7.286;2022-09-01T13:42:47;100156.72;;;23.49;36.00
55538;BME280;41383;51.418;7.286;2022-09-01T13:45:14;100156.50;;;23.33;36.59
55538;BME280;41383;51.418;7.286;2022-09-01T13:47:43;100151.94;;;23.50;36.00
55538;BME280;41383;51.418;7.286;2022-09-01T13:50:10;100144.09;;;23.77;35.92
55538;BME280;41383;51.418;7.286;2022-09-01T13:52:39;100137.84;;;23.80;35.07
55538;BME280;41383;51.418;7.286;2022-09-01T13:55:06;100131.34;;;23.76;35.05